Time,TemperatureF,DewpointF,PressureIn,WindDirection,WindDirectionDegrees,WindSpeedMPH,WindSpeedGustMPH,Humidity,HourlyPrecipIn,Conditions,Clouds,dailyrainin,SoftwareType,DateUTC
2013-06-24 00:02:00,70.0,67.0,30.06,West,270,0.0,1.0,90,0.00,,,0.00,,2013-06-24 04:02:00,
2013-06-24 00:12:00,70.0,67.0,30.06,West,270,0.0,1.0,90,0.00,,,0.00,,2013-06-24 04:12:00,
2013-06-24 00:22:00,70.0,67.0,30.06,West,270,0.0,1.0,90,0.00,,,0.00,,2013-06-24 04:22:00,
2013-06-24 00:33:00,70.0,67.0,30.06,West,270,0.0,1.0,90,0.00,,,0.00,,2013-06-24 04:33:00,
2013-06-24 00:43:00,70.0,67.0,30.06,South,180,0.0,0.0,89,0.00,,,0.00,,2013-06-24 04:43:00,
2013-06-24 00:53:00,70.0,67.0,30.06,WSW,248,0.0,5.0,89,0.00,,,0.00,,2013-06-24 04:53:00,
2013-06-24 01:02:00,70.0,67.0,30.06,WSW,248,0.0,0.0,89,0.00,,,0.00,,2013-06-24 05:02:00,
2013-06-24 01:12:00,70.0,67.0,30.06,WSW,248,0.0,0.0,89,0.00,,,0.00,,2013-06-24 05:12:00,
2013-06-24 01:22:00,70.0,67.0,30.06,WNW,292,0.0,0.0,89,0.00,,,0.00,,2013-06-24 05:22:00,
2013-06-24 01:46:00,70.0,67.0,30.06,WNW,292,0.0,0.0,89,0.00,,,0.00,,2013-06-24 05:46:00,
2013-06-24 01:57:00,69.0,66.0,30.06,WNW,292,0.0,0.0,90,0.00,,,0.00,,2013-06-24 05:57:00,
2013-06-24 02:09:00,69.0,66.0,30.06,WNW,292,0.0,0.0,90,0.00,,,0.00,,2013-06-24 06:09:00,
2013-06-24 02:15:00,69.0,66.0,30.06,WNW,292,0.0,0.0,90,0.00,,,0.00,,2013-06-24 06:15:00,
2013-06-24 02:24:00,69.0,66.0,30.06,SW,225,0.0,0.0,90,0.00,,,0.00,,2013-06-24 06:24:00,
2013-06-24 02:38:00,69.0,66.0,30.06,SW,225,0.0,0.0,90,0.00,,,0.00,,2013-06-24 06:38:00,
2013-06-24 02:43:00,69.0,66.0,30.03,WSW,248,0.0,0.0,91,0.00,,,0.00,,2013-06-24 06:43:00,
2013-06-24 02:48:00,69.0,66.0,30.06,SW,225,0.0,0.0,90,0.00,,,0.00,,2013-06-24 06:48:00,
2013-06-24 02:57:00,69.0,66.0,30.03,West,270,0.0,2.0,91,0.00,,,0.00,,2013-06-24 06:57:00,
2013-06-24 03:16:00,69.0,66.0,30.03,WSW,248,0.0,0.0,91,0.00,,,0.00,,2013-06-24 07:16:00,
2013-06-24 03:31:00,69.0,66.0,30.03,WSW,248,0.0,0.0,91,0.00,,,0.00,,2013-06-24 07:31:00,
2013-06-24 03:37:00,69.0,66.0,30.03,WSW,248,0.0,0.0,91,0.00,,,0.00,,2013-06-24 07:37:00,
2013-06-24 04:05:00,69.0,67.0,30.03,West,270,0.0,0.0,92,0.00,,,0.00,,2013-06-24 08:05:00,
2013-06-24 04:15:00,69.0,67.0,30.03,NNW,338,0.0,4.0,92,0.00,,,0.00,,2013-06-24 08:15:00,
2013-06-24 04:36:00,68.0,66.0,30.03,WSW,248,0.0,2.0,92,0.00,,,0.00,,2013-06-24 08:36:00,
2013-06-24 04:46:00,69.0,67.0,30.03,WSW,248,0.0,6.0,92,0.00,,,0.00,,2013-06-24 08:46:00,
2013-06-24 05:07:00,69.0,67.0,30.03,West,270,0.0,0.0,92,0.00,,,0.00,,2013-06-24 09:07:00,
2013-06-24 05:27:00,69.0,67.0,30.03,WSW,248,0.0,0.0,92,0.00,,,0.00,,2013-06-24 09:27:00,
2013-06-24 05:38:00,69.0,67.0,30.03,WSW,248,0.0,0.0,92,0.00,,,0.00,,2013-06-24 09:38:00,
2013-06-24 05:47:00,69.0,67.0,30.00,WSW,248,0.0,0.0,92,0.00,,,0.00,,2013-06-24 09:47:00,
2013-06-24 06:00:00,69.0,67.0,30.00,WSW,248,0.0,0.0,92,0.00,,,0.00,,2013-06-24 10:00:00,
2013-06-24 06:03:00,69.0,67.0,30.00,SW,225,0.0,0.0,92,0.00,,,0.00,,2013-06-24 10:03:00,
2013-06-24 06:24:00,69.0,67.0,30.00,SW,225,0.0,0.0,92,0.00,,,0.00,,2013-06-24 10:24:00,
2013-06-24 06:38:00,69.0,67.0,30.00,SW,225,0.0,0.0,92,0.00,,,0.00,,2013-06-24 10:38:00,
2013-06-24 06:58:00,69.0,67.0,30.00,SW,225,0.0,0.0,92,0.00,,,0.00,,2013-06-24 10:58:00,
2013-06-24 07:35:00,69.0,66.0,30.00,SSW,202,0.0,0.0,91,0.00,,,0.00,,2013-06-24 11:35:00,
2013-06-24 07:50:00,70.0,67.0,30.00,SW,225,0.0,0.0,91,0.00,,,0.00,,2013-06-24 11:50:00,
2013-06-24 07:58:00,70.0,67.0,30.00,SW,225,0.0,0.0,91,0.00,,,0.00,,2013-06-24 11:58:00,
2013-06-24 08:06:00,70.0,67.0,30.00,NNW,338,0.0,0.0,91,0.00,,,0.00,,2013-06-24 12:06:00,
2013-06-24 08:16:00,70.0,67.0,30.00,NNW,338,0.0,0.0,91,0.00,,,0.00,,2013-06-24 12:16:00,
2013-06-24 08:24:00,70.0,67.0,30.00,WNW,292,0.0,7.0,91,0.00,,,0.00,,2013-06-24 12:24:00,
2013-06-24 08:36:00,70.0,67.0,30.00,WNW,292,0.0,7.0,91,0.00,,,0.00,,2013-06-24 12:36:00,
2013-06-24 08:48:00,70.0,67.0,30.00,West,270,0.0,0.0,91,0.00,,,0.00,,2013-06-24 12:48:00,
2013-06-24 08:55:00,70.0,67.0,30.00,West,270,0.0,0.0,91,0.00,,,0.00,,2013-06-24 12:55:00,
2013-06-24 09:14:00,71.0,68.0,30.00,WSW,248,0.0,0.0,90,0.00,,,0.00,,2013-06-24 13:14:00,
2013-06-24 09:24:00,71.0,68.0,30.00,WSW,248,0.0,0.0,90,0.00,,,0.00,,2013-06-24 13:24:00,
2013-06-24 09:36:00,71.0,68.0,30.00,WSW,248,0.0,0.0,90,0.00,,,0.00,,2013-06-24 13:36:00,
2013-06-24 09:44:00,72.0,69.0,30.00,WSW,248,0.0,8.0,89,0.00,,,0.00,,2013-06-24 13:44:00,
2013-06-24 09:58:00,72.0,69.0,30.00,WSW,248,0.0,8.0,89,0.00,,,0.00,,2013-06-24 13:58:00,
2013-06-24 10:16:00,73.0,69.0,30.00,SW,225,0.0,6.0,88,0.00,,,0.00,,2013-06-24 14:16:00,
2013-06-24 10:25:00,74.0,70.0,30.00,West,270,0.0,0.0,87,0.00,,,0.00,,2013-06-24 14:25:00,
2013-06-24 10:38:00,74.0,70.0,30.00,WSW,248,0.0,0.0,87,0.00,,,0.00,,2013-06-24 14:38:00,
2013-06-24 10:45:00,74.0,70.0,30.00,WNW,292,4.0,4.0,86,0.00,,,0.00,,2013-06-24 14:45:00,
2013-06-24 10:59:00,74.0,70.0,30.00,WNW,292,4.0,4.0,86,0.00,,,0.00,,2013-06-24 14:59:00,
2013-06-24 11:05:00,75.0,70.0,29.97,WSW,248,0.0,4.0,85,0.00,,,0.00,,2013-06-24 15:05:00,
2013-06-24 11:15:00,75.0,70.0,29.97,WSW,248,0.0,4.0,85,0.00,,,0.00,,2013-06-24 15:15:00,
2013-06-24 11:27:00,75.0,70.0,29.97,WSW,248,0.0,4.0,85,0.00,,,0.00,,2013-06-24 15:27:00,
2013-06-24 18:56:00,81.0,70.0,29.88,SW,225,5.0,7.0,70,0.00,,,0.00,,2013-06-24 22:56:00,
2013-06-24 19:05:00,79.0,69.0,29.91,West,270,0.0,6.0,71,0.00,,,0.00,,2013-06-24 23:05:00,
2013-06-24 19:14:00,79.0,69.0,29.91,West,270,0.0,6.0,71,0.00,,,0.00,,2013-06-24 23:14:00,
2013-06-24 19:27:00,78.0,69.0,29.91,WNW,292,0.0,7.0,74,0.00,,,0.00,,2013-06-24 23:27:00,
2013-06-24 19:45:00,76.0,68.0,29.91,West,270,0.0,7.0,76,0.00,,,0.00,,2013-06-24 23:45:00,
2013-06-24 19:56:00,76.0,68.0,29.91,West,270,0.0,7.0,76,0.00,,,0.00,,2013-06-24 23:56:00,
2013-06-24 20:13:00,75.0,68.0,29.91,West,270,0.0,6.0,78,0.00,,,0.00,,2013-06-25 00:13:00,
2013-06-24 20:24:00,75.0,68.0,29.91,West,270,0.0,6.0,78,0.00,,,0.00,,2013-06-25 00:24:00,
2013-06-24 20:35:00,74.0,67.0,29.88,West,270,0.0,5.0,79,0.00,,,0.00,,2013-06-25 00:35:00,
2013-06-24 20:47:00,74.0,67.0,29.91,WNW,292,0.0,1.0,80,0.00,,,0.00,,2013-06-25 00:47:00,
2013-06-24 20:55:00,74.0,67.0,29.91,WNW,292,0.0,1.0,80,0.00,,,0.00,,2013-06-25 00:55:00,
2013-06-24 21:04:00,73.0,67.0,29.91,WSW,248,0.0,0.0,81,0.00,,,0.00,,2013-06-25 01:04:00,
2013-06-24 21:17:00,73.0,67.0,29.91,WSW,248,0.0,0.0,81,0.00,,,0.00,,2013-06-25 01:17:00,
2013-06-24 21:58:00,72.0,67.0,29.94,NW,315,0.0,6.0,83,0.00,,,0.00,,2013-06-25 01:58:00,
2013-06-24 22:16:00,72.0,67.0,29.94,NW,315,0.0,6.0,83,0.00,,,0.00,,2013-06-25 02:16:00,
2013-06-24 22:25:00,72.0,67.0,29.94,North,0,0.0,0.0,84,0.00,,,0.00,,2013-06-25 02:25:00,
2013-06-24 22:37:00,72.0,67.0,29.94,North,0,0.0,0.0,84,0.00,,,0.00,,2013-06-25 02:37:00,
2013-06-24 22:49:00,73.0,68.0,29.94,North,0,0.0,0.0,84,0.00,,,0.00,,2013-06-25 02:49:00,
2013-06-24 23:33:00,72.0,66.0,29.94,NNE,22,0.0,0.0,81,0.00,,,0.00,,2013-06-25 03:33:00,
2013-06-24 23:53:00,72.0,66.0,29.94,NNE,22,0.0,0.0,81,0.00,,,0.00,,2013-06-25 03:53:00,